Time;durP1;ratioP1;P1;durP2;ratioP2;P2;SDS_P1;SDS_P2;PMS_P1;PMS_P2;Temp;Humidity;BMP_temperature;BMP_pressure;BME280_temperature;BME280_humidity;BME280_pressure;Samples;Min_cycle;Max_cycle;Signal;HPM_P1;HPM_P2
2021/01/02 00:01:16;;;;;;;0.17;0.17;;;0.00;99.90;;;;;;5091641;28;20156;-75
2021/01/02 00:03:48;;;;;;;0.38;0.38;;;-0.10;99.90;;;;;;5091558;28;20183;-74
2021/01/02 00:06:31;;;;;;;0.52;0.52;;;0.00;99.90;;;;;;5091568;28;20183;-75
2021/01/02 00:09:08;;;;;;;0.30;0.30;;;0.00;99.90;;;;;;5091398;28;20179;-75
2021/01/02 00:12:11;;;;;;;0.13;0.13;;;-0.10;99.90;;;;;;5090274;28;20168;-75
2021/01/02 00:14:55;;;;;;;0.40;0.40;;;-0.30;99.90;;;;;;5091408;28;20175;-75
2021/01/02 00:17:38;;;;;;;0.10;0.10;;;-0.30;99.90;;;;;;5091347;28;20156;-75
2021/01/02 00:20:07;;;;;;;0.30;0.30;;;-0.20;99.90;;;;;;5089944;28;20168;-75
2021/01/02 00:22:47;;;;;;;0.10;0.10;;;-0.10;99.90;;;;;;5089968;28;20199;-74
2021/01/02 00:25:17;;;;;;;0.10;0.10;;;-0.10;99.90;;;;;;5091207;28;20160;-75
2021/01/02 00:28:10;;;;;;;3.00;2.55;;;-0.20;99.90;;;;;;5091078;28;20247;-75
2021/01/02 00:30:42;;;;;;;0.10;0.10;;;-0.20;99.90;;;;;;5089733;28;20184;-75
2021/01/02 00:33:19;;;;;;;0.10;0.10;;;-0.20;99.90;;;;;;5091023;28;20162;-75
2021/01/02 00:35:49;;;;;;;0.75;0.75;;;-0.10;99.90;;;;;;5090789;28;20186;-74
2021/01/02 00:38:16;;;;;;;0.20;0.20;;;-0.10;99.90;;;;;;5089637;28;20627;-75
2021/01/02 00:40:42;;;;;;;0.70;0.65;;;0.10;99.90;;;;;;5089378;28;20224;-74
2021/01/02 00:43:08;;;;;;;0.50;0.50;;;0.20;99.90;;;;;;5090774;28;20184;-75
2021/01/02 00:45:35;;;;;;;0.15;0.15;;;0.30;99.90;;;;;;5090787;28;20259;-75
2021/01/02 00:48:03;;;;;;;0.20;0.20;;;0.40;99.90;;;;;;5090616;28;20183;-75
2021/01/02 00:50:29;;;;;;;0.25;0.25;;;0.50;99.90;;;;;;5089492;28;20164;-75
2021/01/02 00:53:08;;;;;;;0.10;0.10;;;0.50;99.90;;;;;;5089468;28;20172;-75
2021/01/02 00:55:48;;;;;;;0.15;0.15;;;0.60;99.90;;;;;;5089314;28;20175;-75
2021/01/02 00:58:50;;;;;;;0.32;0.32;;;0.70;99.90;;;;;;5090426;28;20183;-75
2021/01/02 01:01:25;;;;;;;0.82;0.50;;;0.70;99.90;;;;;;5090472;28;20215;-75
2021/01/02 01:03:56;;;;;;;2.38;0.88;;;0.80;99.90;;;;;;5089744;28;20214;-75
2021/01/02 01:06:25;;;;;;;0.45;0.45;;;0.90;99.90;;;;;;5088999;28;20164;-75
2021/01/02 01:08:53;;;;;;;0.17;0.17;;;0.80;99.90;;;;;;5090122;28;20257;-74
2021/01/02 01:11:22;;;;;;;1.85;1.75;;;0.80;99.90;;;;;;5090162;28;20155;-75
2021/01/02 01:13:54;;;;;;;0.10;0.10;;;0.80;99.90;;;;;;5090251;28;20175;-75
2021/01/02 01:16:25;;;;;;;0.95;0.95;;;0.80;99.90;;;;;;5090102;28;20175;-75
2021/01/02 01:19:04;;;;;;;0.10;0.10;;;0.80;99.90;;;;;;5090022;28;20214;-74
2021/01/02 01:21:35;;;;;;;0.20;0.20;;;0.80;99.90;;;;;;5090012;28;20160;-75
2021/01/02 01:24:14;;;;;;;0.20;0.20;;;0.70;99.90;;;;;;5089926;28;20326;-75
2021/01/02 01:27:02;;;;;;;0.13;0.13;;;0.80;99.90;;;;;;5089881;28;20176;-74
2021/01/02 01:30:00;;;;;;;0.10;0.10;;;0.90;99.90;;;;;;5089954;28;20184;-74
2021/01/02 01:32:29;;;;;;;0.17;0.17;;;0.90;99.90;;;;;;5089925;28;20167;-75
2021/01/02 01:35:01;;;;;;;0.20;0.20;;;1.00;99.90;;;;;;5089797;28;20188;-75
2021/01/02 01:37:32;;;;;;;0.25;0.25;;;1.00;99.90;;;;;;5088330;28;20199;-74
2021/01/02 01:39:59;;;;;;;0.30;0.30;;;1.00;99.90;;;;;;5088161;28;20257;-74
2021/01/02 01:42:36;;;;;;;0.10;0.10;;;1.10;99.90;;;;;;5089715;28;20165;-75
2021/01/02 01:45:20;;;;;;;0.30;0.30;;;0.90;99.90;;;;;;5089645;28;20171;-75
2021/01/02 01:48:04;;;;;;;0.40;0.40;;;0.80;99.90;;;;;;5088307;28;20219;-75
2021/01/02 01:50:42;;;;;;;0.68;0.68;;;0.80;99.90;;;;;;5088287;28;20176;-75
2021/01/02 01:53:37;;;;;;;0.20;0.20;;;0.70;99.90;;;;;;5089501;28;20164;-75
2021/01/02 01:56:42;;;;;;;0.32;0.32;;;0.50;99.90;;;;;;5089462;28;20262;-75
2021/01/02 01:59:17;;;;;;;0.20;0.20;;;0.50;99.90;;;;;;5088129;28;20198;-75
2021/01/02 02:01:46;;;;;;;0.20;0.20;;;0.40;99.90;;;;;;5089509;28;20224;-75
2021/01/02 02:04:12;;;;;;;0.20;0.20;;;0.30;99.90;;;;;;5089296;28;20192;-75
2021/01/02 02:06:45;;;;;;;0.20;0.20;;;0.20;99.90;;;;;;5088126;28;20197;-75
2021/01/02 02:09:21;;;;;;;0.10;0.10;;;0.20;99.90;;;;;;5089262;28;20183;-75
2021/01/02 02:12:03;;;;;;;0.20;0.20;;;0.20;99.90;;;;;;5089255;28;20155;-75
2021/01/02 02:14:42;;;;;;;0.30;0.30;;;0.30;99.90;;;;;;5088317;28;20164;-75
2021/01/02 02:17:15;;;;;;;0.35;0.35;;;0.40;99.90;;;;;;5087822;28;20202;-75
2021/01/02 02:19:57;;;;;;;0.30;0.30;;;0.30;99.90;;;;;;5089209;28;20595;-75
2021/01/02 02:22:27;;;;;;;0.40;0.40;;;0.10;99.90;;;;;;5087767;28;20175;-74
2021/01/02 02:24:55;;;;;;;0.22;0.22;;;0.10;99.90;;;;;;5089043;28;20174;-75
2021/01/02 02:27:26;;;;;;;0.40;0.40;;;0.10;99.90;;;;;;5089052;28;20210;-75
2021/01/02 02:30:10;;;;;;;1.05;1.05;;;0.10;99.90;;;;;;5089065;28;20148;-75
2021/01/02 02:32:43;;;;;;;0.60;0.60;;;0.10;99.90;;;;;;5089003;28;20179;-75
2021/01/02 02:35:14;;;;;;;1.00;1.00;;;0.00;99.90;;;;;;5088985;28;20160;-75
2021/01/02 02:37:47;;;;;;;0.10;0.10;;;-0.10;99.90;;;;;;5088935;28;20183;-74
2021/01/02 02:40:17;;;;;;;0.40;0.40;;;-0.20;99.90;;;;;;5088774;28;20204;-75
2021/01/02 02:42:58;;;;;;;0.20;0.20;;;-0.20;99.90;;;;;;5088924;28;20172;-75
2021/01/02 02:45:27;;;;;;;0.20;0.20;;;-0.20;99.90;;;;;;5089020;28;20197;-75
2021/01/02 02:47:55;;;;;;;0.38;0.35;;;-0.30;99.90;;;;;;5088915;28;20192;-75
2021/01/02 02:50:24;;;;;;;0.93;0.93;;;-0.30;99.90;;;;;;5087725;28;20246;-74
2021/01/02 02:53:11;;;;;;;0.20;0.20;;;-0.40;99.90;;;;;;5087701;28;20179;-75
2021/01/02 02:55:37;;;;;;;0.20;0.20;;;-0.30;99.90;;;;;;5088915;28;20164;-74
2021/01/02 02:58:06;;;;;;;0.30;0.30;;;-0.10;99.90;;;;;;5088863;28;20199;-75
2021/01/02 03:00:33;;;;;;;0.40;0.40;;;-0.10;99.90;;;;;;5088932;28;20201;-74
2021/01/02 03:03:00;;;;;;;0.73;0.73;;;0.00;99.90;;;;;;5088758;28;20184;-74
2021/01/02 03:05:26;;;;;;;0.55;0.55;;;0.00;99.90;;;;;;5088843;28;20156;-74
2021/01/02 03:07:52;;;;;;;0.68;0.68;;;0.00;99.90;;;;;;5088761;28;20196;-75
2021/01/02 03:10:20;;;;;;;1.15;1.15;;;0.00;99.90;;;;;;5088747;28;20191;-75
2021/01/02 03:12:48;;;;;;;0.10;0.10;;;0.00;99.90;;;;;;5088788;28;20166;-74
2021/01/02 03:15:16;;;;;;;1.02;0.93;;;0.00;99.90;;;;;;5088733;28;20161;-75
2021/01/02 03:17:44;;;;;;;0.30;0.30;;;0.10;99.90;;;;;;5088646;28;20215;-75
2021/01/02 03:20:12;;;;;;;0.17;0.17;;;0.10;99.90;;;;;;5088661;28;20160;-75
2021/01/02 03:22:42;;;;;;;0.20;0.20;;;0.20;99.90;;;;;;5088656;28;20161;-74
2021/01/02 03:25:10;;;;;;;0.15;0.15;;;0.30;99.90;;;;;;5088882;28;20178;-75
2021/01/02 03:27:38;;;;;;;0.28;0.28;;;0.30;99.90;;;;;;5092229;28;20191;-74
2021/01/02 03:30:06;;;;;;;0.20;0.20;;;0.40;99.90;;;;;;5090962;28;20182;-75
2021/01/02 03:32:33;;;;;;;0.10;0.10;;;0.40;99.90;;;;;;5090893;28;20199;-75
2021/01/02 03:34:59;;;;;;;0.80;0.80;;;0.30;99.90;;;;;;5091961;28;20184;-75
2021/01/02 03:37:26;;;;;;;0.20;0.20;;;0.30;99.90;;;;;;5091907;28;20191;-74
2021/01/02 03:39:52;;;;;;;0.50;0.50;;;0.30;99.90;;;;;;5090411;28;20334;-75
2021/01/02 03:42:17;;;;;;;0.20;0.20;;;0.30;99.90;;;;;;5092023;28;20156;-75
2021/01/02 03:44:43;;;;;;;0.20;0.20;;;0.30;99.90;;;;;;5090510;28;20217;-74
2021/01/02 03:47:10;;;;;;;1.33;1.23;;;0.30;99.90;;;;;;5091710;28;20206;-75
2021/01/02 03:49:37;;;;;;;1.55;0.95;;;0.30;99.90;;;;;;5091897;28;20237;-74
2021/01/02 03:52:07;;;;;;;0.20;0.20;;;0.30;99.90;;;;;;5090539;28;20200;-74
2021/01/02 03:54:33;;;;;;;0.30;0.30;;;0.30;99.90;;;;;;5091636;28;20160;-74
2021/01/02 03:56:59;;;;;;;0.15;0.15;;;0.40;99.90;;;;;;5091712;28;20194;-74
2021/01/02 03:59:25;;;;;;;0.10;0.10;;;0.30;99.90;;;;;;5091624;28;20211;-74
2021/01/02 04:01:58;;;;;;;0.22;0.22;;;0.20;99.90;;;;;;5091559;28;20160;-74
2021/01/02 04:04:25;;;;;;;0.10;0.10;;;0.20;99.90;;;;;;5091628;28;20275;-75
2021/01/02 04:06:51;;;;;;;0.10;0.10;;;0.20;99.90;;;;;;5091438;28;20159;-75
2021/01/02 04:09:21;;;;;;;0.47;0.47;;;0.20;99.90;;;;;;5091387;28;20196;-74
2021/01/02 04:11:48;;;;;;;0.10;0.10;;;0.30;99.90;;;;;;5091528;28;20160;-75
2021/01/02 04:14:14;;;;;;;0.63;0.63;;;0.20;99.90;;;;;;5089940;28;20225;-74
2021/01/02 04:16:42;;;;;;;0.20;0.20;;;0.10;99.90;;;;;;5091310;28;20152;-74
2021/01/02 04:19:09;;;;;;;0.45;0.45;;;0.00;99.90;;;;;;5091035;28;20192;-74
2021/01/02 04:21:35;;;;;;;0.50;0.50;;;0.00;99.90;;;;;;5091337;28;20163;-75
2021/01/02 04:24:01;;;;;;;0.40;0.40;;;-0.10;99.90;;;;;;5089860;28;20215;-74
2021/01/02 04:26:28;;;;;;;0.30;0.30;;;-0.20;99.90;;;;;;5091158;28;20153;-74
2021/01/02 04:28:55;;;;;;;0.77;0.77;;;-0.20;99.90;;;;;;5090980;28;20194;-74
2021/01/02 04:31:35;;;;;;;0.65;0.65;;;-0.30;99.90;;;;;;5089815;28;20164;-75
2021/01/02 04:34:03;;;;;;;0.35;0.35;;;-0.20;99.90;;;;;;5091071;28;20171;-74
2021/01/02 04:36:29;;;;;;;0.15;0.15;;;-0.20;99.90;;;;;;5090588;28;20152;-75
2021/01/02 04:38:54;;;;;;;0.20;0.20;;;-0.10;99.90;;;;;;5088829;28;20206;-75
2021/01/02 04:41:20;;;;;;;0.10;0.10;;;-0.10;99.90;;;;;;5089438;28;20227;-75
2021/01/02 04:43:47;;;;;;;0.10;0.10;;;-0.10;99.90;;;;;;5090738;28;20199;-75
2021/01/02 04:46:15;;;;;;;0.10;0.10;;;0.00;99.90;;;;;;5090780;28;20215;-74
2021/01/02 04:48:45;;;;;;;0.10;0.10;;;0.00;99.90;;;;;;5090599;28;20198;-75
2021/01/02 04:51:16;;;;;;;0.20;0.20;;;0.10;99.90;;;;;;5090743;28;20554;-75
2021/01/02 04:53:43;;;;;;;0.10;0.10;;;0.10;99.90;;;;;;5089405;28;20184;-74
2021/01/02 04:56:09;;;;;;;0.20;0.20;;;0.20;99.90;;;;;;5089366;28;20180;-74
2021/01/02 04:58:43;;;;;;;0.20;0.20;;;0.30;99.90;;;;;;5090512;28;20192;-75
2021/01/02 05:01:11;;;;;;;0.10;0.10;;;0.40;99.90;;;;;;5089353;28;20179;-75
2021/01/02 05:03:43;;;;;;;0.30;0.30;;;0.50;99.90;;;;;;5090362;28;20191;-74
2021/01/02 05:06:10;;;;;;;4.03;1.65;;;0.60;99.90;;;;;;5090356;28;20152;-74
2021/01/02 05:08:38;;;;;;;0.10;0.10;;;0.60;99.90;;;;;;5090063;28;20596;-75
2021/01/02 05:11:05;;;;;;;0.10;0.10;;;0.60;99.90;;;;;;5090252;28;20162;-75
2021/01/02 05:13:37;;;;;;;0.10;0.10;;;0.70;99.90;;;;;;5089004;28;20175;-75
2021/01/02 05:16:23;;;;;;;0.52;0.52;;;0.80;99.90;;;;;;5090207;28;20160;-75
2021/01/02 05:19:05;;;;;;;0.20;0.20;;;0.80;99.90;;;;;;5089964;28;20187;-74
2021/01/02 05:21:32;;;;;;;0.20;0.20;;;0.80;99.90;;;;;;5090095;28;20219;-74
2021/01/02 05:24:04;;;;;;;2.25;2.15;;;0.90;99.90;;;;;;5089953;28;20183;-75
2021/01/02 05:26:31;;;;;;;1.02;0.95;;;0.90;99.90;;;;;;5090008;28;20160;-74
2021/01/02 05:29:21;;;;;;;0.10;0.10;;;1.00;99.90;;;;;;5089944;28;20183;-75
2021/01/02 05:31:58;;;;;;;0.28;0.28;;;1.00;99.90;;;;;;5089839;28;20175;-75
2021/01/02 05:34:26;;;;;;;0.22;0.22;;;0.90;99.90;;;;;;5089736;28;20164;-75
2021/01/02 05:37:02;;;;;;;0.30;0.30;;;0.90;99.90;;;;;;5089834;28;20665;-75
2021/01/02 05:39:49;;;;;;;0.20;0.20;;;1.00;99.90;;;;;;5088026;28;20210;-74
2021/01/02 05:42:15;;;;;;;0.17;0.17;;;1.00;99.90;;;;;;5089484;28;20175;-75
2021/01/02 05:44:42;;;;;;;0.50;0.50;;;1.00;99.90;;;;;;5089709;28;20628;-75
2021/01/02 05:47:12;;;;;;;0.30;0.30;;;0.90;99.90;;;;;;5089775;28;20179;-75
2021/01/02 05:49:39;;;;;;;0.10;0.10;;;0.90;99.90;;;;;;5088017;28;20175;-75
2021/01/02 05:52:08;;;;;;;0.20;0.20;;;0.90;99.90;;;;;;5089446;28;20183;-74
2021/01/02 05:54:35;;;;;;;0.10;0.10;;;0.90;99.90;;;;;;5088374;28;20176;-73
2021/01/02 05:57:05;;;;;;;0.10;0.10;;;0.80;99.90;;;;;;5089436;28;20636;-76
2021/01/02 05:59:39;;;;;;;0.32;0.32;;;0.90;99.90;;;;;;5089505;28;20167;-76
2021/01/02 06:02:24;;;;;;;0.35;0.35;;;0.90;99.90;;;;;;5089489;28;20647;-75
2021/01/02 06:04:57;;;;;;;0.75;0.75;;;0.90;99.90;;;;;;5089192;28;20243;-75
2021/01/02 06:07:24;;;;;;;0.47;0.47;;;0.90;99.90;;;;;;5089301;28;20160;-75
2021/01/02 06:09:51;;;;;;;0.28;0.28;;;0.90;99.90;;;;;;5088106;28;20183;-75
2021/01/02 06:12:43;;;;;;;0.68;0.68;;;0.90;99.90;;;;;;5089380;28;20190;-75
2021/01/02 06:15:15;;;;;;;0.35;0.35;;;0.90;99.90;;;;;;5088944;28;20184;-75
2021/01/02 06:17:42;;;;;;;0.20;0.20;;;0.90;99.90;;;;;;5089226;28;20255;-75
2021/01/02 06:20:10;;;;;;;0.10;0.10;;;0.90;99.90;;;;;;5089168;28;20148;-75
2021/01/02 06:22:37;;;;;;;0.50;0.50;;;0.80;99.90;;;;;;5089218;28;20251;-75
2021/01/02 06:25:06;;;;;;;0.80;0.80;;;0.90;99.90;;;;;;5087938;28;20168;-75
2021/01/02 06:27:33;;;;;;;0.10;0.10;;;0.90;99.90;;;;;;5089064;28;20669;-75
2021/01/02 06:29:59;;;;;;;3.33;1.17;;;1.00;99.90;;;;;;5087787;28;20176;-75
2021/01/02 06:32:27;;;;;;;0.45;0.45;;;1.00;99.90;;;;;;5089043;28;20215;-75
2021/01/02 06:35:08;;;;;;;0.40;0.40;;;1.10;99.90;;;;;;5089155;28;20559;-75
2021/01/02 06:37:49;;;;;;;0.20;0.20;;;1.10;99.90;;;;;;5088773;28;20191;-75
2021/01/02 06:40:24;;;;;;;0.40;0.40;;;1.20;99.90;;;;;;5088940;28;20224;-75
2021/01/02 06:42:53;;;;;;;0.57;0.57;;;1.00;99.90;;;;;;5088671;28;20164;-75
2021/01/02 06:45:45;;;;;;;0.28;0.28;;;1.10;99.90;;;;;;5089020;28;20152;-76
2021/01/02 06:48:17;;;;;;;0.68;0.68;;;1.10;99.90;;;;;;5088552;28;20253;-75
2021/01/02 06:50:48;;;;;;;2.30;1.35;;;1.00;99.90;;;;;;5088906;28;20168;-75
2021/01/02 06:53:23;;;;;;;0.35;0.35;;;1.10;99.90;;;;;;5088926;28;20168;-75
2021/01/02 06:56:16;;;;;;;0.40;0.40;;;1.10;99.90;;;;;;5088730;28;20160;-75
2021/01/02 06:58:50;;;;;;;0.85;0.82;;;1.10;99.90;;;;;;5088802;28;20222;-76
2021/01/02 07:01:16;;;;;;;2.05;1.95;;;1.10;99.90;;;;;;5090958;28;20617;-75
2021/01/02 07:03:45;;;;;;;0.75;0.75;;;1.10;99.90;;;;;;5092494;28;20269;-74
2021/01/02 07:06:23;;;;;;;0.82;0.82;;;1.10;99.90;;;;;;5091338;28;20176;-75
2021/01/02 07:09:21;;;;;;;1.00;1.00;;;1.20;99.90;;;;;;5091344;28;20587;-75
2021/01/02 07:11:52;;;;;;;0.47;0.47;;;1.20;99.90;;;;;;5092496;28;20156;-75
2021/01/02 07:14:24;;;;;;;1.38;1.30;;;1.10;99.90;;;;;;5092450;28;20164;-75
2021/01/02 07:16:54;;;;;;;0.10;0.10;;;1.20;99.90;;;;;;5092503;28;20157;-75
2021/01/02 07:19:33;;;;;;;0.20;0.20;;;1.10;99.90;;;;;;5092223;28;20643;-75
2021/01/02 07:22:20;;;;;;;0.40;0.40;;;1.10;99.90;;;;;;5092439;28;20220;-75
2021/01/02 07:24:51;;;;;;;1.17;1.17;;;1.20;99.90;;;;;;5092269;28;20195;-75
2021/01/02 07:27:25;;;;;;;0.80;0.80;;;1.10;99.90;;;;;;5090736;28;20182;-75
2021/01/02 07:30:13;;;;;;;0.10;0.10;;;1.10;99.90;;;;;;5092253;28;20162;-75
2021/01/02 07:32:43;;;;;;;0.32;0.32;;;1.10;99.90;;;;;;5090581;28;20599;-76
2021/01/02 07:35:14;;;;;;;0.30;0.30;;;1.10;99.90;;;;;;5092056;28;20163;-75
2021/01/02 07:37:45;;;;;;;0.30;0.30;;;1.10;99.90;;;;;;5091896;28;20192;-75
2021/01/02 07:40:14;;;;;;;0.38;0.38;;;1.20;99.90;;;;;;5091799;28;20229;-75
2021/01/02 07:43:02;;;;;;;0.10;0.10;;;1.20;99.90;;;;;;5091839;28;20624;-75
2021/01/02 07:45:29;;;;;;;0.17;0.17;;;1.30;99.90;;;;;;5091908;28;20148;-75
2021/01/02 07:47:58;;;;;;;0.30;0.30;;;1.40;99.90;;;;;;5091876;28;20220;-75
2021/01/02 07:50:27;;;;;;;0.20;0.20;;;1.50;99.90;;;;;;5091780;28;20190;-75
2021/01/02 07:52:55;;;;;;;0.15;0.15;;;1.60;99.90;;;;;;5090427;28;20255;-76
2021/01/02 07:55:28;;;;;;;0.82;0.82;;;1.70;99.90;;;;;;5090017;28;20175;-75
2021/01/02 07:57:55;;;;;;;0.17;0.17;;;1.80;99.90;;;;;;5091667;28;20695;-75
2021/01/02 08:00:22;;;;;;;0.73;0.73;;;1.80;99.90;;;;;;5091574;28;20156;-75
2021/01/02 08:02:48;;;;;;;0.20;0.20;;;1.90;99.90;;;;;;5090164;28;20235;-76
2021/01/02 08:05:22;;;;;;;1.88;1.75;;;1.90;99.90;;;;;;5091563;28;20506;-75
2021/01/02 08:07:55;;;;;;;0.75;0.75;;;2.00;99.90;;;;;;5091366;28;20195;-76
2021/01/02 08:10:22;;;;;;;0.82;0.82;;;2.00;99.90;;;;;;5091570;28;20156;-75
2021/01/02 08:12:50;;;;;;;0.40;0.40;;;1.90;99.90;;;;;;5090054;28;20521;-75
2021/01/02 08:15:28;;;;;;;0.82;0.82;;;1.90;99.90;;;;;;5090206;28;20168;-75
2021/01/02 08:17:59;;;;;;;0.22;0.22;;;2.10;99.90;;;;;;5091217;28;20183;-75
2021/01/02 08:20:25;;;;;;;0.52;0.52;;;2.10;99.90;;;;;;5091310;28;20567;-75
2021/01/02 08:22:53;;;;;;;2.47;2.30;;;2.10;99.90;;;;;;5089838;28;20179;-74
2021/01/02 08:25:19;;;;;;;1.52;1.42;;;2.00;99.90;;;;;;5089951;28;20249;-75
2021/01/02 08:27:48;;;;;;;0.30;0.30;;;2.10;99.90;;;;;;5090887;28;20195;-75
2021/01/02 08:30:15;;;;;;;0.40;0.40;;;2.20;99.90;;;;;;5091197;28;20156;-75
2021/01/02 08:32:50;;;;;;;0.10;0.10;;;2.10;99.90;;;;;;5090705;28;20153;-75
2021/01/02 08:35:20;;;;;;;0.85;0.85;;;2.20;99.90;;;;;;5091079;28;20243;-75
2021/01/02 08:37:48;;;;;;;0.20;0.20;;;2.30;99.90;;;;;;5089414;28;20198;-74
2021/01/02 08:40:17;;;;;;;2.28;1.30;;;2.40;99.90;;;;;;5090647;28;20215;-75
2021/01/02 08:42:46;;;;;;;0.60;0.60;;;2.50;99.90;;;;;;5089469;28;20179;-75
2021/01/02 08:45:14;;;;;;;0.20;0.20;;;2.60;99.90;;;;;;5089380;28;20200;-74
2021/01/02 08:47:40;;;;;;;0.57;0.57;;;2.50;99.90;;;;;;5090727;28;20532;-75
2021/01/02 08:50:14;;;;;;;0.63;0.63;;;2.40;99.90;;;;;;5090670;28;20159;-75
2021/01/02 08:52:41;;;;;;;0.60;0.60;;;2.60;99.90;;;;;;5090671;28;20195;-75
2021/01/02 08:55:17;;;;;;;3.30;2.20;;;2.60;99.90;;;;;;5090503;28;20156;-75
2021/01/02 08:57:55;;;;;;;2.13;1.98;;;2.60;99.90;;;;;;5090471;28;20195;-75
2021/01/02 09:00:23;;;;;;;0.68;0.68;;;2.60;99.90;;;;;;5089324;28;20578;-75
2021/01/02 09:03:07;;;;;;;0.20;0.20;;;2.60;99.90;;;;;;5090468;28;20190;-75
2021/01/02 09:05:38;;;;;;;0.45;0.45;;;2.60;99.90;;;;;;5090353;28;20960;-74
2021/01/02 09:08:08;;;;;;;1.33;1.27;;;2.80;99.90;;;;;;5090182;28;20188;-75
2021/01/02 09:10:42;;;;;;;1.27;1.27;;;2.90;99.90;;;;;;5090318;28;20158;-74
2021/01/02 09:13:11;;;;;;;1.77;1.13;;;2.90;99.90;;;;;;5090270;28;20243;-75
2021/01/02 09:15:50;;;;;;;0.20;0.20;;;3.00;99.90;;;;;;5088934;28;20186;-75
2021/01/02 09:18:36;;;;;;;0.15;0.15;;;3.00;99.90;;;;;;5090031;28;20195;-75
2021/01/02 09:21:10;;;;;;;0.10;0.10;;;3.10;99.90;;;;;;5089983;28;20160;-75
2021/01/02 09:23:41;;;;;;;0.30;0.30;;;3.30;99.90;;;;;;5089371;28;20194;-76
2021/01/02 09:26:27;;;;;;;0.68;0.68;;;3.40;99.90;;;;;;5089988;28;20156;-75
2021/01/02 09:28:55;;;;;;;0.20;0.20;;;3.40;99.90;;;;;;5089862;28;20188;-74
2021/01/02 09:31:21;;;;;;;0.10;0.10;;;3.50;99.90;;;;;;5089789;28;20164;-75
2021/01/02 09:33:48;;;;;;;0.20;0.20;;;3.60;99.90;;;;;;5089750;28;20160;-75
2021/01/02 09:36:16;;;;;;;1.05;1.02;;;3.70;99.90;;;;;;5089670;28;20621;-75
2021/01/02 09:38:43;;;;;;;0.77;0.77;;;3.80;99.90;;;;;;5089699;28;20192;-75
2021/01/02 09:41:11;;;;;;;0.13;0.13;;;3.90;99.90;;;;;;5088324;28;20319;-75
2021/01/02 09:43:37;;;;;;;1.27;1.20;;;4.00;99.90;;;;;;5089504;28;20192;-76
2021/01/02 09:46:03;;;;;;;0.20;0.20;;;4.10;99.90;;;;;;5089648;28;20159;-75
2021/01/02 09:48:30;;;;;;;0.10;0.10;;;4.20;99.90;;;;;;5089531;28;20211;-75
2021/01/02 09:50:55;;;;;;;1.00;1.00;;;4.30;99.90;;;;;;5088305;28;20232;-75
2021/01/02 09:53:21;;;;;;;0.30;0.30;;;4.30;99.90;;;;;;5088094;28;20266;-75
2021/01/02 09:55:47;;;;;;;0.50;0.50;;;4.40;99.90;;;;;;5089359;28;20243;-76
2021/01/02 09:58:14;;;;;;;0.80;0.80;;;4.60;99.90;;;;;;5089318;28;20195;-74
2021/01/02 10:00:41;;;;;;;2.00;1.88;;;4.70;99.90;;;;;;5089386;28;20167;-75
2021/01/02 10:03:09;;;;;;;0.43;0.43;;;4.80;99.90;;;;;;5089355;28;20217;-74
2021/01/02 10:05:36;;;;;;;0.57;0.57;;;5.20;99.90;;;;;;5089247;28;20184;-75
2021/01/02 10:08:03;;;;;;;0.40;0.40;;;5.30;99.90;;;;;;5099070;28;20171;-75
2021/01/02 10:10:30;;;;;;;0.10;0.10;;;5.20;99.90;;;;;;5109577;28;20301;-75
2021/01/02 10:12:56;;;;;;;0.28;0.28;;;5.60;99.90;;;;;;5109304;28;20194;-75
2021/01/02 10:15:22;;;;;;;0.75;0.75;;;6.00;99.90;;;;;;5109509;28;20191;-75
2021/01/02 10:17:48;;;;;;;0.60;0.60;;;6.00;99.90;;;;;;5109484;28;20162;-75
2021/01/02 10:20:15;;;;;;;1.08;1.08;;;6.00;99.90;;;;;;5108102;28;20164;-75
2021/01/02 10:22:41;;;;;;;1.40;1.35;;;6.00;99.90;;;;;;5108031;28;20160;-75
2021/01/02 10:25:09;;;;;;;3.28;3.08;;;5.80;99.90;;;;;;5107740;28;20213;-75
2021/01/02 10:27:36;;;;;;;2.08;1.50;;;5.80;99.90;;;;;;5109179;28;20155;-73
2021/01/02 10:30:05;;;;;;;0.20;0.20;;;5.80;99.90;;;;;;5109336;28;20155;-75
2021/01/02 10:32:30;;;;;;;1.67;1.55;;;5.70;99.90;;;;;;5109260;28;20151;-75
2021/01/02 10:34:57;;;;;;;0.30;0.30;;;5.60;99.90;;;;;;5107478;28;20260;-76
2021/01/02 10:37:27;;;;;;;1.42;1.33;;;5.80;99.90;;;;;;5111907;28;20185;-75
2021/01/02 10:39:53;;;;;;;0.55;0.55;;;5.70;99.90;;;;;;5113417;28;20232;-75
2021/01/02 10:42:27;;;;;;;0.90;0.90;;;5.70;99.90;;;;;;5111979;28;20200;-75
2021/01/02 10:44:53;;;;;;;0.75;0.75;;;5.90;99.90;;;;;;5113375;28;20203;-75
2021/01/02 10:47:23;;;;;;;0.40;0.40;;;5.90;99.90;;;;;;5111998;28;20178;-75
2021/01/02 10:49:50;;;;;;;0.45;0.45;;;5.60;99.90;;;;;;5113317;28;20159;-75
2021/01/02 10:52:18;;;;;;;0.85;0.85;;;5.20;99.90;;;;;;5111977;28;20197;-75
2021/01/02 10:54:46;;;;;;;0.20;0.20;;;5.00;99.90;;;;;;5113245;28;20216;-75
2021/01/02 10:57:13;;;;;;;0.55;0.55;;;4.90;99.90;;;;;;5113169;28;20159;-75
2021/01/02 10:59:43;;;;;;;0.47;0.47;;;4.90;99.90;;;;;;5113183;28;20156;-74
2021/01/02 11:02:10;;;;;;;1.15;1.13;;;5.20;99.90;;;;;;5111657;28;20607;-75
2021/01/02 11:04:36;;;;;;;1.95;0.82;;;5.40;99.90;;;;;;5112947;28;20391;-75
2021/01/02 11:07:02;;;;;;;0.43;0.43;;;5.60;99.90;;;;;;5111632;28;20226;-75
2021/01/02 11:09:28;;;;;;;0.35;0.35;;;5.70;99.90;;;;;;5112803;28;20171;-75
2021/01/02 11:11:54;;;;;;;0.70;0.70;;;5.70;99.90;;;;;;5111504;28;20163;-74
2021/01/02 11:14:21;;;;;;;0.80;0.50;;;5.80;99.90;;;;;;5112753;28;20224;-75
2021/01/02 11:16:47;;;;;;;1.08;1.08;;;5.70;99.90;;;;;;5112736;28;20159;-75
2021/01/02 11:19:26;;;;;;;0.93;0.68;;;5.60;99.90;;;;;;5112658;28;20156;-75
2021/01/02 11:21:57;;;;;;;0.80;0.80;;;5.60;99.90;;;;;;5112719;28;20152;-74
2021/01/02 11:24:26;;;;;;;1.42;1.38;;;5.60;99.90;;;;;;5112472;28;20186;-75
2021/01/02 11:26:55;;;;;;;1.48;1.45;;;5.60;99.90;;;;;;5112737;28;20148;-74
2021/01/02 11:29:23;;;;;;;1.38;1.33;;;5.70;99.90;;;;;;5112208;28;20177;-75
2021/01/02 11:31:50;;;;;;;2.83;0.82;;;5.50;99.90;;;;;;5112472;28;20155;-74
2021/01/02 11:34:17;;;;;;;1.02;1.02;;;5.30;99.90;;;;;;5112571;28;20163;-74
2021/01/02 11:36:47;;;;;;;1.35;1.35;;;5.10;99.90;;;;;;5112187;28;20618;-75
2021/01/02 11:39:13;;;;;;;1.45;1.35;;;4.90;99.90;;;;;;5110965;28;20167;-74
2021/01/02 11:41:42;;;;;;;0.75;0.60;;;4.90;99.90;;;;;;5112017;28;20248;-75
2021/01/02 11:44:11;;;;;;;0.68;0.68;;;4.80;99.90;;;;;;5112043;28;20183;-75
2021/01/02 11:46:43;;;;;;;2.28;1.35;;;4.70;99.90;;;;;;5111527;28;20193;-76
2021/01/02 11:49:11;;;;;;;2.58;2.45;;;4.70;99.90;;;;;;5111869;28;20156;-75
2021/01/02 11:51:37;;;;;;;2.20;1.38;;;4.80;99.90;;;;;;5112067;28;20163;-75
2021/01/02 11:54:05;;;;;;;2.65;2.55;;;4.80;99.90;;;;;;5110641;28;20187;-75
2021/01/02 11:56:30;;;;;;;2.33;2.22;;;4.90;99.90;;;;;;5111699;28;20209;-75
2021/01/02 11:59:00;;;;;;;0.52;0.52;;;4.80;99.90;;;;;;5112006;28;20584;-75
2021/01/02 12:01:35;;;;;;;0.77;0.77;;;4.70;99.90;;;;;;5111843;28;20147;-75
2021/01/02 12:04:01;;;;;;;1.13;1.10;;;4.80;99.90;;;;;;5110517;28;20198;-75
2021/01/02 12:06:31;;;;;;;1.60;1.50;;;4.80;99.90;;;;;;5110571;28;20198;-75
2021/01/02 12:08:58;;;;;;;3.33;2.42;;;4.90;99.90;;;;;;5111909;28;20173;-74
2021/01/02 12:11:32;;;;;;;0.95;0.95;;;4.90;99.90;;;;;;5110296;28;20231;-75
2021/01/02 12:13:59;;;;;;;2.20;2.03;;;5.00;99.90;;;;;;5111826;28;20203;-75
2021/01/02 12:16:37;;;;;;;1.08;1.08;;;5.10;99.90;;;;;;5111470;28;20645;-75
2021/01/02 12:19:05;;;;;;;1.55;1.45;;;5.10;99.90;;;;;;5110028;28;20230;-75
2021/01/02 12:21:32;;;;;;;0.43;0.43;;;5.10;99.90;;;;;;5111453;28;20179;-75
2021/01/02 12:23:58;;;;;;;1.05;0.68;;;5.10;99.90;;;;;;5111189;28;20183;-75
2021/01/02 12:26:24;;;;;;;0.40;0.40;;;5.20;99.90;;;;;;5111453;28;20195;-75
2021/01/02 12:28:51;;;;;;;0.60;0.60;;;5.20;99.90;;;;;;5111437;28;20177;-75
2021/01/02 12:31:19;;;;;;;1.20;1.10;;;5.30;99.90;;;;;;5111347;28;20163;-75
2021/01/02 12:33:46;;;;;;;1.10;1.10;;;5.50;99.90;;;;;;5109843;28;20179;-75
2021/01/02 12:36:15;;;;;;;1.20;1.20;;;5.70;99.90;;;;;;5109602;28;20229;-75
2021/01/02 12:38:42;;;;;;;1.83;1.73;;;5.80;99.90;;;;;;5109576;28;20624;-75
2021/01/02 12:41:14;;;;;;;1.58;1.48;;;5.90;99.90;;;;;;5109646;28;20230;-75
2021/01/02 12:43:42;;;;;;;0.55;0.55;;;5.80;99.90;;;;;;5110844;28;20246;-75
2021/01/02 12:46:08;;;;;;;0.45;0.45;;;5.50;99.90;;;;;;5109627;28;20196;-75
2021/01/02 12:48:34;;;;;;;1.83;1.73;;;5.30;99.90;;;;;;5109676;28;20167;-75
2021/01/02 12:51:00;;;;;;;7.38;1.95;;;5.50;99.90;;;;;;5109662;28;20236;-75
2021/01/02 12:53:26;;;;;;;1.13;1.13;;;5.60;99.90;;;;;;5110866;28;20167;-75
2021/01/02 12:55:52;;;;;;;0.85;0.85;;;5.70;99.90;;;;;;5109568;28;20290;-75
2021/01/02 12:58:17;;;;;;;0.52;0.52;;;5.90;99.90;;;;;;5110019;28;20183;-75
2021/01/02 13:00:43;;;;;;;0.52;0.52;;;6.00;99.90;;;;;;5110843;28;20200;-75
2021/01/02 13:03:09;;;;;;;1.27;1.17;;;6.10;99.90;;;;;;5109218;28;20202;-75
2021/01/02 13:05:35;;;;;;;0.38;0.38;;;6.10;99.90;;;;;;5109418;28;20195;-75
2021/01/02 13:08:00;;;;;;;0.63;0.63;;;6.20;99.90;;;;;;5110524;28;20182;-75
2021/01/02 13:10:26;;;;;;;0.30;0.30;;;6.20;99.90;;;;;;5110682;28;20258;-75
2021/01/02 13:12:52;;;;;;;1.67;1.58;;;6.10;99.90;;;;;;5110408;28;20261;-74
2021/01/02 13:15:18;;;;;;;0.30;0.30;;;6.00;99.90;;;;;;5109246;28;20215;-75